Alba, Illinois
Current Conditions -  °F | °C
As of 6:52 AM on Sunday 23 Nov 2014 (Local Time) from KMLI Reporting Station
Light Rain Light Rain  
Wind Chill: 52°   Ceiling: 3400
Heat Index: 52°   Visibility: 8mi
Dew Point: 47°   Wind: 13mph
Humidity: 83%   Direction: 170°S
Pressure: 29.65"   Gusts: NA
Location:  41.4097°N, 90.0293°W
Report Text: KMLI 231252Z 17011KT 8SM -RA OVC034 11/08 A2965 RMK AO2 RAB48 SLP042 P0000 T01110083 $
Loading
Personal Weather Stations






























Interactive Weather Map New forecast layout! Learn more

10-Day Weather Forecast

Advertisements
Track Severe Weather on mobile